createdAt,value
2023-04-07T00:04:49.233Z,9.06
2023-04-07T00:09:52.191Z,9.08
2023-04-07T00:14:53.795Z,9.12
2023-04-07T00:19:55.425Z,9.10
2023-04-07T00:24:58.405Z,9.24
2023-04-07T00:30:00.559Z,9.18
2023-04-07T00:35:02.698Z,9.10
2023-04-07T00:40:07.098Z,9.14
2023-04-07T00:45:09.743Z,9.30
2023-04-07T00:50:11.626Z,9.11
2023-04-07T00:55:14.676Z,9.15
2023-04-07T01:00:16.709Z,9.11
2023-04-07T01:05:23.547Z,8.88
2023-04-07T01:10:36.140Z,9.10
2023-04-07T01:15:39.705Z,9.22
2023-04-07T01:20:44.022Z,9.10
2023-04-07T01:26:14.749Z,9.01
2023-04-07T01:31:18.800Z,8.93
2023-04-07T01:36:22.101Z,9.07
2023-04-07T01:41:25.269Z,9.21
2023-04-07T01:46:29.128Z,8.95
2023-04-07T01:51:32.334Z,8.89
2023-04-07T01:56:34.313Z,9.00
2023-04-07T02:01:37.881Z,9.05
2023-04-07T02:06:47.267Z,8.99
2023-04-07T02:11:50.274Z,9.16
2023-04-07T02:16:54.982Z,9.20
2023-04-07T02:21:57.891Z,8.98
2023-04-07T02:26:59.753Z,8.86
2023-04-07T02:32:06.699Z,8.94
2023-04-07T02:37:08.732Z,9.04
2023-04-07T02:42:10.604Z,8.95
2023-04-07T02:47:13.681Z,9.00
2023-04-07T02:52:15.594Z,9.02
2023-04-07T02:57:17.375Z,8.98
2023-04-07T03:02:20.687Z,8.95
2023-04-07T03:07:24.050Z,9.04
2023-04-07T03:12:25.995Z,8.91
2023-04-07T03:17:29.468Z,8.90
2023-04-07T03:22:31.708Z,8.86
2023-04-07T03:27:33.887Z,8.85
2023-04-07T03:32:37.050Z,8.90
2023-04-07T03:37:38.867Z,8.87
2023-04-07T03:42:40.616Z,8.91
2023-04-07T03:47:43.960Z,8.95
2023-04-07T03:52:46.189Z,8.90
2023-04-07T03:57:48.006Z,8.87
2023-04-07T04:02:51.404Z,8.96
2023-04-07T04:07:53.265Z,8.97
2023-04-07T04:12:55.114Z,8.99
2023-04-07T04:17:58.545Z,8.90
2023-04-07T04:23:00.551Z,8.94
2023-04-07T04:28:02.154Z,8.69
2023-04-07T04:33:05.276Z,8.75
2023-04-07T04:38:06.986Z,8.79
2023-04-07T04:43:08.605Z,8.77
2023-04-07T04:48:11.733Z,8.60
2023-04-07T04:53:13.623Z,8.54
2023-04-07T04:58:15.713Z,8.66
2023-04-07T05:03:19.791Z,8.93
2023-04-07T05:08:24.355Z,8.79
2023-04-07T05:13:25.979Z,8.74
2023-04-07T05:18:29.214Z,8.68
2023-04-07T05:23:30.981Z,8.72
2023-04-07T05:28:32.594Z,8.79
2023-04-07T05:33:35.567Z,8.75
2023-04-07T05:38:37.200Z,8.66
2023-04-07T05:43:38.865Z,8.72
2023-04-07T05:48:41.822Z,8.67
2023-04-07T05:53:43.407Z,8.75
2023-04-07T05:58:45.076Z,8.66
2023-04-07T06:03:48.357Z,8.81
2023-04-07T06:08:50.236Z,8.78
2023-04-07T06:13:51.854Z,8.74
2023-04-07T06:18:54.901Z,8.87
2023-04-07T06:23:56.500Z,8.90
2023-04-07T06:28:58.400Z,8.95
2023-04-07T06:34:01.609Z,8.84
2023-04-07T06:39:03.719Z,8.90
2023-04-07T06:44:06.547Z,8.85
2023-04-07T06:49:10.692Z,8.98
2023-04-07T06:54:12.554Z,8.87
2023-04-07T06:59:14.577Z,8.99
2023-04-07T07:04:17.714Z,9.04
2023-04-07T07:09:19.426Z,9.00
2023-04-07T07:14:21.048Z,8.91
2023-04-07T07:19:24.096Z,9.06
2023-04-07T07:24:25.742Z,9.18
2023-04-07T07:29:27.403Z,9.23
2023-04-07T07:34:30.420Z,9.14
2023-04-07T07:39:32.173Z,9.21
2023-04-07T07:44:33.749Z,9.38
2023-04-07T07:49:36.990Z,9.38
2023-04-07T07:54:38.691Z,9.39
2023-04-07T07:59:40.448Z,9.33
2023-04-07T08:04:43.499Z,9.50
2023-04-07T08:09:45.173Z,9.67
2023-04-07T08:14:46.799Z,9.74
2023-04-07T08:19:49.868Z,9.70
2023-04-07T08:24:51.496Z,9.72
2023-04-07T08:29:59.621Z,9.57
2023-04-07T08:35:02.672Z,9.59
2023-04-07T08:40:05.299Z,9.65
2023-04-07T08:45:08.057Z,9.72
2023-04-07T08:50:12.081Z,9.84
2023-04-07T08:55:13.796Z,9.86
2023-04-07T09:00:16.116Z,9.96
2023-04-07T09:05:19.307Z,9.95
2023-04-07T09:10:21.388Z,9.96
2023-04-07T09:15:23.598Z,10.10
2023-04-07T09:20:26.745Z,10.21
2023-04-07T09:25:28.903Z,10.13
2023-04-07T09:30:32.012Z,10.15
2023-04-07T09:35:51.556Z,10.11
2023-04-07T09:41:06.114Z,10.09
2023-04-07T09:46:09.740Z,10.15
2023-04-07T09:51:15.246Z,10.10
2023-04-07T09:56:18.728Z,10.06
2023-04-07T10:01:22.212Z,10.04
2023-04-07T10:06:26.084Z,10.01
2023-04-07T10:11:30.651Z,10.15
2023-04-07T10:16:32.945Z,10.27
2023-04-07T10:21:39.364Z,10.26
2023-04-07T10:26:42.050Z,10.37
2023-04-07T10:31:44.792Z,10.38
2023-04-07T10:37:11.798Z,10.13
2023-04-07T10:42:46.551Z,10.22
2023-04-07T10:48:15.615Z,10.44
2023-04-07T10:53:18.647Z,10.58
2023-04-07T10:58:22.398Z,10.64
2023-04-07T11:03:25.771Z,10.72
2023-04-07T11:08:34.612Z,10.54
2023-04-07T11:13:40.828Z,10.60
2023-04-07T11:18:43.905Z,10.53
2023-04-07T11:23:48.448Z,10.67
2023-04-07T11:28:52.403Z,10.86
2023-04-07T11:33:58.202Z,10.79
2023-04-07T11:39:03.667Z,10.74
2023-04-07T11:44:09.984Z,10.81
2023-04-07T11:49:14.479Z,10.71
2023-04-07T11:54:17.739Z,10.99
2023-04-07T11:59:21.496Z,10.76
2023-04-07T12:04:23.437Z,10.84
2023-04-07T12:09:29.601Z,10.67
2023-04-07T12:14:31.692Z,10.89
2023-04-07T12:19:33.680Z,10.92
2023-04-07T12:24:37.055Z,11.13
2023-04-07T12:29:38.964Z,11.05
2023-04-07T12:34:40.697Z,11.16
2023-04-07T12:39:43.665Z,11.25
2023-04-07T12:44:45.513Z,11.09
2023-04-07T12:49:49.292Z,10.97
2023-04-07T12:54:53.486Z,10.94
2023-04-07T12:59:55.447Z,10.96
2023-04-07T13:04:57.134Z,10.83
2023-04-07T13:10:00.279Z,10.88
2023-04-07T13:15:02.667Z,11.04
2023-04-07T13:20:05.673Z,11.07
2023-04-07T13:25:09.362Z,11.12
2023-04-07T13:30:12.167Z,11.19
2023-04-07T13:35:14.031Z,11.21
2023-04-07T13:40:17.399Z,11.23
2023-04-07T13:45:19.470Z,11.09
2023-04-07T13:50:21.546Z,10.93
2023-04-07T13:55:24.583Z,11.02
2023-04-07T14:00:26.576Z,11.10
2023-04-07T14:05:28.455Z,11.10
2023-04-07T14:10:31.638Z,11.16
2023-04-07T14:15:33.582Z,11.07
2023-04-07T14:20:35.873Z,11.08
2023-04-07T14:25:39.080Z,11.19
2023-04-07T14:30:40.704Z,11.00
2023-04-07T14:35:42.444Z,11.25
2023-04-07T14:40:45.874Z,11.13
2023-04-07T14:45:47.565Z,11.20
2023-04-07T14:50:53.877Z,11.24
2023-04-07T14:56:06.580Z,11.22
2023-04-07T15:01:08.504Z,11.22
2023-04-07T15:06:13.139Z,11.24
2023-04-07T15:11:16.223Z,11.05
2023-04-07T15:16:18.221Z,11.06
2023-04-07T15:21:20.192Z,11.02
2023-04-07T15:26:23.435Z,11.16
2023-04-07T15:31:25.216Z,11.18
2023-04-07T15:36:29.496Z,11.28
2023-04-07T15:41:32.673Z,11.27
2023-04-07T15:46:34.287Z,11.29
2023-04-07T15:51:38.910Z,11.19
2023-04-07T15:56:41.873Z,11.24
2023-04-07T16:01:43.684Z,11.11
2023-04-07T16:06:45.450Z,11.07
2023-04-07T16:11:48.449Z,11.11
2023-04-07T16:16:50.056Z,11.17
2023-04-07T16:21:52.274Z,11.07
2023-04-07T16:26:55.273Z,11.00
2023-04-07T16:31:56.934Z,11.03
2023-04-07T16:36:58.724Z,11.10
2023-04-07T16:42:01.796Z,11.04
2023-04-07T16:47:03.531Z,10.99
2023-04-07T16:52:05.203Z,11.03
2023-04-07T16:57:08.153Z,11.02
2023-04-07T17:02:10.943Z,11.09
2023-04-07T17:07:12.769Z,10.99
2023-04-07T17:12:15.762Z,11.04
2023-04-07T17:17:17.480Z,11.03
2023-04-07T17:22:19.085Z,10.98
2023-04-07T17:27:22.054Z,10.98
2023-04-07T17:32:23.716Z,10.90
2023-04-07T17:37:26.568Z,10.74
2023-04-07T17:42:29.559Z,10.74
2023-04-07T17:47:31.260Z,10.67
2023-04-07T17:52:32.918Z,10.72
2023-04-07T17:57:36.265Z,10.66
2023-04-07T18:02:38.071Z,10.50
2023-04-07T18:07:40.022Z,10.43
2023-04-07T18:12:42.997Z,10.39
2023-04-07T18:17:47.818Z,10.33
2023-04-07T18:22:51.015Z,10.36
2023-04-07T18:27:54.205Z,10.34
2023-04-07T18:32:55.876Z,10.32
2023-04-07T18:37:57.493Z,10.30
2023-04-07T18:43:00.611Z,10.31
2023-04-07T18:48:02.436Z,10.32
2023-04-07T18:53:04.200Z,10.31
2023-04-07T18:58:07.213Z,10.26
2023-04-07T19:03:09.163Z,10.27
2023-04-07T19:08:10.972Z,10.33
2023-04-07T19:13:13.940Z,10.34
2023-04-07T19:18:15.575Z,10.21
2023-04-07T19:23:17.177Z,10.28
2023-04-07T19:28:20.558Z,10.11
2023-04-07T19:33:22.197Z,9.99
2023-04-07T19:38:23.820Z,9.84
2023-04-07T19:43:26.842Z,9.68
2023-04-07T19:48:28.475Z,9.65
2023-04-07T19:53:30.129Z,9.57
2023-04-07T19:58:33.509Z,9.58
2023-04-07T20:03:35.145Z,9.58
2023-04-07T20:08:36.900Z,9.57
2023-04-07T20:13:41.879Z,9.61
2023-04-07T20:18:43.985Z,9.49
2023-04-07T20:23:45.638Z,9.64
2023-04-07T20:28:48.907Z,9.91
2023-04-07T20:33:50.833Z,9.89
2023-04-07T20:38:54.354Z,9.84
2023-04-07T20:43:57.456Z,9.88
2023-04-07T20:48:59.070Z,9.86
2023-04-07T20:54:00.691Z,9.89
2023-04-07T20:59:03.739Z,9.88
2023-04-07T21:04:05.464Z,10.00
2023-04-07T21:09:07.214Z,9.97
2023-04-07T21:14:10.315Z,9.90
2023-04-07T21:19:11.949Z,9.83
2023-04-07T21:24:13.708Z,9.82
2023-04-07T21:29:16.699Z,9.84
2023-04-07T21:34:18.449Z,9.83
2023-04-07T21:39:20.055Z,9.85
2023-04-07T21:44:23.044Z,9.92
2023-04-07T21:49:26.721Z,9.94
2023-04-07T21:54:28.352Z,9.97
2023-04-07T21:59:31.398Z,9.94
2023-04-07T22:04:33.123Z,9.84
2023-04-07T22:09:34.790Z,9.85
2023-04-07T22:14:37.781Z,9.96
2023-04-07T22:19:39.387Z,9.90
2023-04-07T22:24:41.013Z,9.93
2023-04-07T22:29:43.989Z,9.90
2023-04-07T22:34:45.639Z,9.91
2023-04-07T22:39:47.370Z,9.87
2023-04-07T22:44:50.352Z,9.89
2023-04-07T22:49:51.964Z,9.86
2023-04-07T22:54:53.597Z,9.92
2023-04-07T22:59:56.575Z,9.98
2023-04-07T23:04:58.272Z,9.92
2023-04-07T23:10:00.172Z,9.87
2023-04-07T23:15:03.548Z,9.92
2023-04-07T23:20:06.443Z,9.93
2023-04-07T23:25:08.863Z,9.89
2023-04-07T23:30:12.901Z,9.84
2023-04-07T23:35:14.576Z,9.83
2023-04-07T23:40:16.462Z,9.85
2023-04-07T23:45:20.642Z,9.86
2023-04-07T23:50:22.516Z,9.78
2023-04-07T23:55:24.207Z,9.85
